Página principal
METAR-TAF:

METAR-TAF

Aeroportos :

Aeroporto Internacional de Dubai

Dubai, Emirados Árabes Unidos

latitude: 25-15-10N, longitude: 055-21-52E, altura: 8 m

Observação actual do tempo

O boletim foi feito há 5 minutos, às 16:00 UTC
Vento 9 kt de oes-noroeste
Temperatura 26°C
Humidade 58%
Pressão 1017 hPa
Visibilidade 10 km ou mais
Nuvens dispersasa uma altura de 3500 ft

METAR: OMDB 211600Z 29009KT 9999 SCT035 26/17 Q1017 NOSIG

Hora: 20:05 (16:05 UTC)

Previsão

O boletim foi feito há 5 horas e 14 minutos, às 10:51 UTC
Previsão válida de 21 às 12 UTC a 22 às 18 UTC
Vento 13 kt de oes-noroeste
Visibilidade 10 km ou mais
Nuvens dispersasa uma altura de 3500 ft
Tornando-se
de 21 às 18 UTC a 21 às 20 UTC
Vento 8 kt de sul
Tornando-se
de 22 às 06 UTC a 22 às 08 UTC
Vento 10 kt de oes-noroeste
Tornando-se
de 22 às 15 UTC a 22 às 17 UTC
Vento 5 kt de su-sudeste

TAF: OMDB 211051Z 2112/2218 29013KT 9999 SCT035 BECMG 2118/2120 19008KT BECMG 2206/2208 29010KT BECMG 2215/2217 15005KT

Observações e previsões do tempo de mais de 4000 aeroportos (mensagens METAR e TAF).

As estações disponíveis são os pontos amarelos e vermelhos sobre o mapa.

Mova o rato sobre o mapa para ver o nome da estação.

Depois clique no ponto para visualizar as observações e previsões meteorológicas.

Para alterar o mapa : clique nos botões verdes com uma cruz preta para aumentar o zoom; no botão verde com uma pitada de zoom; ou nas setas verdes para mapas adjacentes.


METAR-TAF: